Time;durP1;ratioP1;P1;durP2;ratioP2;P2;SDS_P1;SDS_P2;PMS_P1;PMS_P2;Temp;Humidity;BMP_temperature;BMP_pressure;BME280_temperature;BME280_humidity;BME280_pressure;Samples;Min_cycle;Max_cycle;Signal;HPM_P1;HPM_P2
2022/04/30 00:00:44;;;;;;;;;;;16.80;79.80;;;;;;4592373;19;20362;-20
2022/04/30 00:02:15;;;;;;;;;;;16.80;79.80;;;;;;4592937;19;19914;-21
2022/04/30 00:03:47;;;;;;;;;;;16.80;79.80;;;;;;4593251;19;19919;-20
2022/04/30 00:05:18;;;;;;;;;;;16.80;80.30;;;;;;4592425;19;20257;-20
2022/04/30 00:06:49;;;;;;;;;;;16.80;79.70;;;;;;4592524;19;19933;-20
2022/04/30 00:08:20;;;;;;;;;;;16.80;79.70;;;;;;4592578;19;19914;-20
2022/04/30 00:09:51;;;;;;;;;;;16.80;79.60;;;;;;4592764;19;20384;-20
2022/04/30 00:11:22;;;;;;;;;;;16.80;79.70;;;;;;4593173;19;19915;-20
2022/04/30 00:12:53;;;;;;;;;;;16.80;79.70;;;;;;4592073;19;19944;-20
2022/04/30 00:14:24;;;;;;;;;;;16.80;79.70;;;;;;4592619;19;19915;-20
2022/04/30 00:15:55;;;;;;;;;;;16.80;79.60;;;;;;4591744;19;19927;-20
2022/04/30 00:17:26;;;;;;;;;;;16.80;79.50;;;;;;4592685;19;19915;-21
2022/04/30 00:18:57;;;;;;;;;;;16.70;79.40;;;;;;4592421;19;19915;-21
2022/04/30 00:20:28;;;;;;;;;;;16.80;79.40;;;;;;4592640;19;19923;-20
2022/04/30 00:21:59;;;;;;;;;;;16.70;79.40;;;;;;4593058;19;19933;-20
2022/04/30 00:23:30;;;;;;;;;;;16.70;79.40;;;;;;4592275;19;19907;-20
2022/04/30 00:25:01;;;;;;;;;;;16.70;79.30;;;;;;4591993;19;19915;-20
2022/04/30 00:26:32;;;;;;;;;;;16.70;79.20;;;;;;4590492;19;19910;-20
2022/04/30 00:28:05;;;;;;;;;;;16.70;79.20;;;;;;4591982;19;19929;-22
2022/04/30 00:29:35;;;;;;;;;;;16.70;79.20;;;;;;4592406;19;19910;-20
2022/04/30 00:31:07;;;;;;;;;;;16.70;79.10;;;;;;4591469;19;19930;-20
2022/04/30 00:32:38;;;;;;;;;;;16.70;79.10;;;;;;4592656;19;19978;-20
2022/04/30 00:34:09;;;;;;;;;;;16.70;79.10;;;;;;4591410;19;19927;-20
2022/04/30 00:35:40;;;;;;;;;;;16.70;79.00;;;;;;4592204;19;20325;-20
2022/04/30 00:37:11;;;;;;;;;;;16.70;79.10;;;;;;4592162;19;19922;-20
2022/04/30 00:38:42;;;;;;;;;;;16.70;79.00;;;;;;4588266;19;19956;-22
2022/04/30 00:40:13;;;;;;;;;;;16.70;79.00;;;;;;4591947;19;20242;-20
2022/04/30 00:41:44;;;;;;;;;;;16.70;79.00;;;;;;4592260;19;19917;-20
2022/04/30 00:43:15;;;;;;;;;;;16.70;79.10;;;;;;4591681;19;20260;-20
2022/04/30 00:44:47;;;;;;;;;;;16.70;79.00;;;;;;4590468;19;19911;-21
2022/04/30 00:46:19;;;;;;;;;;;16.70;79.00;;;;;;4590696;19;19983;-22
2022/04/30 00:47:50;;;;;;;;;;;16.70;78.90;;;;;;4592094;19;19919;-20
2022/04/30 00:49:21;;;;;;;;;;;16.70;78.90;;;;;;4591944;19;19925;-20
2022/04/30 00:50:53;;;;;;;;;;;16.70;78.90;;;;;;4592401;19;19978;-21
2022/04/30 00:52:25;;;;;;;;;;;16.70;78.80;;;;;;4591622;19;19923;-21
2022/04/30 00:53:56;;;;;;;;;;;16.70;78.80;;;;;;4591840;19;19926;-20
2022/04/30 00:55:28;;;;;;;;;;;16.70;78.80;;;;;;4592400;19;19918;-20
2022/04/30 00:56:59;;;;;;;;;;;16.70;78.70;;;;;;4589444;19;20012;-20
2022/04/30 00:58:30;;;;;;;;;;;16.70;78.70;;;;;;4590140;19;19914;-21
2022/04/30 01:00:01;;;;;;;;;;;16.70;78.70;;;;;;4590479;19;20272;-20
2022/04/30 01:01:32;;;;;;;;;;;16.70;78.70;;;;;;4590248;19;19918;-23
2022/04/30 01:03:03;;;;;;;;;;;16.70;78.70;;;;;;4589662;19;19915;-21
2022/04/30 01:04:34;;;;;;;;;;;16.70;78.70;;;;;;4591585;19;20293;-20
2022/04/30 01:06:06;;;;;;;;;;;16.70;78.60;;;;;;4591328;19;19914;-20
2022/04/30 01:07:39;;;;;;;;;;;16.70;78.60;;;;;;4590893;19;20041;-22
2022/04/30 01:09:10;;;;;;;;;;;16.70;78.60;;;;;;4588932;19;20280;-20
2022/04/30 01:10:41;;;;;;;;;;;16.70;78.50;;;;;;4590468;19;20246;-21
2022/04/30 01:12:13;;;;;;;;;;;16.70;78.50;;;;;;4590221;19;19996;-20
2022/04/30 01:13:44;;;;;;;;;;;16.70;78.50;;;;;;4590939;19;19922;-21
2022/04/30 01:15:15;;;;;;;;;;;16.60;78.40;;;;;;4591678;19;19915;-20
2022/04/30 01:16:46;;;;;;;;;;;16.70;78.40;;;;;;4590880;19;19978;-20
2022/04/30 01:18:17;;;;;;;;;;;16.60;78.30;;;;;;4590813;19;19910;-20
2022/04/30 01:19:48;;;;;;;;;;;16.60;78.20;;;;;;4591326;19;19914;-21
2022/04/30 01:21:19;;;;;;;;;;;16.70;78.30;;;;;;4591222;19;20273;-21
2022/04/30 01:23:01;;;;;;;;;;;16.60;78.10;;;;;;4591379;19;19931;-20
2022/04/30 01:24:31;;;;;;;;;;;16.70;78.70;;;;;;4590529;19;19921;-20
2022/04/30 01:26:02;;;;;;;;;;;16.70;78.10;;;;;;4590430;19;19978;-21
2022/04/30 01:27:33;;;;;;;;;;;16.60;78.00;;;;;;4591244;19;19918;-20
2022/04/30 01:29:04;;;;;;;;;;;16.60;78.00;;;;;;4589881;19;19923;-20
2022/04/30 01:30:35;;;;;;;;;;;16.60;78.60;;;;;;4590616;19;20344;-23
2022/04/30 01:37:55;;;;;;;;;;;16.60;77.80;;;;;;4588242;19;19930;-20
2022/04/30 01:39:26;;;;;;;;;;;16.60;77.70;;;;;;4589281;19;19914;-20
2022/04/30 01:40:58;;;;;;;;;;;16.60;77.70;;;;;;4589196;19;19915;-20
2022/04/30 01:42:35;;;;;;;;;;;16.60;77.60;;;;;;4588444;19;19911;-21
2022/04/30 01:44:06;;;;;;;;;;;16.60;77.50;;;;;;4587048;19;19918;-21
2022/04/30 01:45:37;;;;;;;;;;;16.60;77.50;;;;;;4586898;19;20281;-21
2022/04/30 01:47:08;;;;;;;;;;;16.60;78.00;;;;;;4588583;19;20350;-20
2022/04/30 01:48:39;;;;;;;;;;;16.60;77.40;;;;;;4588735;19;19986;-21
2022/04/30 01:50:10;;;;;;;;;;;16.60;77.40;;;;;;4588790;19;19926;-21
2022/04/30 01:51:47;;;;;;;;;;;16.60;77.40;;;;;;4589112;19;19914;-20
2022/04/30 01:53:18;;;;;;;;;;;16.60;77.40;;;;;;4588569;19;19970;-20
2022/04/30 01:54:49;;;;;;;;;;;16.60;77.40;;;;;;4588650;19;19921;-20
2022/04/30 01:56:20;;;;;;;;;;;16.60;77.30;;;;;;4588674;19;19974;-21
2022/04/30 01:57:51;;;;;;;;;;;16.60;77.30;;;;;;4588290;19;19930;-20
2022/04/30 01:59:22;;;;;;;;;;;16.60;77.30;;;;;;4588306;19;19922;-21
2022/04/30 02:00:53;;;;;;;;;;;16.60;77.30;;;;;;4588189;19;20377;-20
2022/04/30 02:02:24;;;;;;;;;;;16.60;77.30;;;;;;4588385;19;20036;-21
2022/04/30 02:03:56;;;;;;;;;;;16.60;77.30;;;;;;4588522;19;20284;-22
2022/04/30 02:05:27;;;;;;;;;;;16.60;77.30;;;;;;4588138;19;20029;-20
2022/04/30 02:06:59;;;;;;;;;;;16.60;77.20;;;;;;4588356;19;20284;-20
2022/04/30 02:08:33;;;;;;;;;;;16.60;77.20;;;;;;4588725;19;19996;-20
2022/04/30 02:10:04;;;;;;;;;;;16.60;77.10;;;;;;4588357;19;19915;-20
2022/04/30 02:11:35;;;;;;;;;;;16.60;77.10;;;;;;4588051;19;19947;-21
2022/04/30 02:13:06;;;;;;;;;;;16.60;77.10;;;;;;4590483;19;19943;-20
2022/04/30 02:14:37;;;;;;;;;;;16.60;77.10;;;;;;4591038;19;19945;-21
2022/04/30 02:16:07;;;;;;;;;;;16.60;77.10;;;;;;4589468;19;19959;-20
2022/04/30 02:17:40;;;;;;;;;;;16.60;77.10;;;;;;4588788;19;19915;-21
2022/04/30 02:19:11;;;;;;;;;;;16.60;77.10;;;;;;4590324;19;19929;-21
2022/04/30 02:20:44;;;;;;;;;;;16.60;77.00;;;;;;4590586;19;19966;-20
2022/04/30 02:22:16;;;;;;;;;;;16.60;77.00;;;;;;4590133;19;19918;-20
2022/04/30 02:23:50;;;;;;;;;;;16.60;77.00;;;;;;4590448;19;19951;-21
2022/04/30 02:25:21;;;;;;;;;;;16.60;77.00;;;;;;4588955;19;19990;-21
2022/04/30 02:26:52;;;;;;;;;;;16.60;77.00;;;;;;4588237;19;19919;-20
2022/04/30 02:28:23;;;;;;;;;;;16.60;77.00;;;;;;4588909;19;20333;-21
2022/04/30 02:29:54;;;;;;;;;;;16.60;76.90;;;;;;4589542;19;19931;-19
2022/04/30 02:31:26;;;;;;;;;;;16.60;77.50;;;;;;4589529;19;19911;-21
2022/04/30 02:32:57;;;;;;;;;;;16.60;77.00;;;;;;4589597;19;19921;-20
2022/04/30 02:34:28;;;;;;;;;;;16.60;77.00;;;;;;4589866;19;19911;-21
2022/04/30 02:35:59;;;;;;;;;;;16.60;77.00;;;;;;4592751;19;20397;-20
2022/04/30 02:37:29;;;;;;;;;;;16.50;77.00;;;;;;4591104;19;19922;-21
2022/04/30 02:39:00;;;;;;;;;;;16.60;77.00;;;;;;4592235;19;19938;-20
2022/04/30 02:40:33;;;;;;;;;;;16.60;76.90;;;;;;4594512;19;20325;-20
2022/04/30 02:42:04;;;;;;;;;;;16.60;76.90;;;;;;4593851;19;19941;-21
2022/04/30 02:43:35;;;;;;;;;;;16.60;76.90;;;;;;4595036;19;20317;-21
2022/04/30 02:45:09;;;;;;;;;;;16.50;76.80;;;;;;4594395;19;19937;-21
2022/04/30 02:46:39;;;;;;;;;;;16.60;76.70;;;;;;4594284;19;20298;-22
2022/04/30 02:48:12;;;;;;;;;;;16.50;76.60;;;;;;4594666;19;19940;-20
2022/04/30 02:49:43;;;;;;;;;;;16.50;76.60;;;;;;4594809;19;19910;-21
2022/04/30 02:51:15;;;;;;;;;;;16.60;76.70;;;;;;4594202;19;19925;-23
2022/04/30 02:52:46;;;;;;;;;;;16.50;76.60;;;;;;4594301;19;19910;-21
2022/04/30 02:54:17;;;;;;;;;;;16.50;76.50;;;;;;4594220;19;19966;-21
2022/04/30 02:55:48;;;;;;;;;;;16.50;76.50;;;;;;4593735;19;19918;-20
2022/04/30 02:57:19;;;;;;;;;;;16.50;76.50;;;;;;4594027;19;19935;-20
2022/04/30 03:00:39;;;;;;;;;;;16.50;76.40;;;;;;4593925;19;19915;-20
2022/04/30 03:02:10;;;;;;;;;;;16.60;76.40;;;;;;4594309;19;19914;-20
2022/04/30 03:03:41;;;;;;;;;;;16.60;76.40;;;;;;4592883;19;19923;-20
2022/04/30 03:05:12;;;;;;;;;;;16.60;76.40;;;;;;4594050;19;19914;-20
2022/04/30 03:06:46;;;;;;;;;;;16.60;76.40;;;;;;4594508;19;19919;-20
2022/04/30 03:08:19;;;;;;;;;;;16.50;76.20;;;;;;4592734;19;19974;-20
2022/04/30 03:09:50;;;;;;;;;;;16.50;76.20;;;;;;4593600;19;19922;-20
2022/04/30 03:11:21;;;;;;;;;;;16.50;76.20;;;;;;4593527;19;20333;-20
2022/04/30 03:12:52;;;;;;;;;;;16.50;76.20;;;;;;4594474;19;19918;-19
2022/04/30 03:14:23;;;;;;;;;;;16.50;76.20;;;;;;4593156;19;19933;-20
2022/04/30 03:15:55;;;;;;;;;;;16.50;76.10;;;;;;4593048;19;19923;-21
2022/04/30 03:22:42;;;;;;;;;;;16.50;76.00;;;;;;4593813;19;19918;-20
2022/04/30 03:24:16;;;;;;;;;;;16.50;75.90;;;;;;4593845;19;19929;-23
2022/04/30 03:25:47;;;;;;;;;;;16.50;76.00;;;;;;4592395;19;19989;-21
2022/04/30 03:27:18;;;;;;;;;;;16.50;75.90;;;;;;4593427;19;19910;-20
2022/04/30 03:28:53;;;;;;;;;;;16.50;75.90;;;;;;4593315;19;20277;-20
2022/04/30 03:30:24;;;;;;;;;;;16.50;75.90;;;;;;4593712;19;19911;-20
2022/04/30 03:31:56;;;;;;;;;;;16.50;75.90;;;;;;4592644;19;19919;-21
2022/04/30 03:33:26;;;;;;;;;;;16.50;75.90;;;;;;4593586;19;19907;-20
2022/04/30 03:34:57;;;;;;;;;;;16.50;75.90;;;;;;4593387;19;19929;-20
2022/04/30 03:36:29;;;;;;;;;;;16.50;76.40;;;;;;4593321;19;20326;-20
2022/04/30 03:38:01;;;;;;;;;;;16.50;75.90;;;;;;4592441;19;20330;-21
2022/04/30 03:39:31;;;;;;;;;;;16.50;75.90;;;;;;4593491;19;19933;-21
2022/04/30 03:41:05;;;;;;;;;;;16.50;75.90;;;;;;4592752;19;19915;-20
2022/04/30 03:42:36;;;;;;;;;;;16.50;76.00;;;;;;4592986;19;19919;-20
2022/04/30 03:44:07;;;;;;;;;;;16.50;76.00;;;;;;4590946;19;20323;-20
2022/04/30 03:45:38;;;;;;;;;;;16.50;76.00;;;;;;4592565;19;19918;-21
2022/04/30 03:47:09;;;;;;;;;;;16.50;75.90;;;;;;4589072;19;19922;-20
2022/04/30 03:48:40;;;;;;;;;;;16.50;76.00;;;;;;4593197;19;19914;-20
2022/04/30 03:50:11;;;;;;;;;;;16.50;75.90;;;;;;4593213;19;19918;-21
2022/04/30 03:51:42;;;;;;;;;;;16.50;75.90;;;;;;4592700;19;19918;-21
2022/04/30 03:53:13;;;;;;;;;;;16.50;76.00;;;;;;4593184;19;20325;-21
2022/04/30 03:54:44;;;;;;;;;;;16.50;76.00;;;;;;4592992;19;19918;-20
2022/04/30 03:56:17;;;;;;;;;;;16.50;76.10;;;;;;4593608;19;19926;-20
2022/04/30 03:57:48;;;;;;;;;;;16.50;76.10;;;;;;4592780;19;19915;-20
2022/04/30 03:59:18;;;;;;;;;;;16.50;76.10;;;;;;4593218;19;19915;-21
2022/04/30 04:00:49;;;;;;;;;;;16.50;76.10;;;;;;4592599;19;19936;-20
2022/04/30 04:02:20;;;;;;;;;;;16.50;76.10;;;;;;4590267;19;20246;-20
2022/04/30 04:03:52;;;;;;;;;;;16.50;76.10;;;;;;4591823;19;19917;-20
2022/04/30 04:05:23;;;;;;;;;;;16.50;76.10;;;;;;4593247;19;19919;-23
2022/04/30 04:06:54;;;;;;;;;;;16.60;76.20;;;;;;4592970;19;20321;-20
2022/04/30 04:08:25;;;;;;;;;;;16.60;76.20;;;;;;4588950;19;20381;-21
2022/04/30 04:09:56;;;;;;;;;;;16.60;76.20;;;;;;4591792;19;19919;-20
2022/04/30 04:11:27;;;;;;;;;;;16.60;76.20;;;;;;4594037;19;19930;-21
2022/04/30 04:17:37;;;;;;;;;;;16.50;76.20;;;;;;4594665;19;19933;-22
2022/04/30 04:18:28;;;;;;;;;;;16.60;76.40;;;;;;4593310;19;19947;-19
2022/04/30 04:19:59;;;;;;;;;;;16.60;76.90;;;;;;4591448;19;19947;-20
2022/04/30 04:21:30;;;;;;;;;;;16.60;76.40;;;;;;4591127;19;19914;-21
2022/04/30 04:23:01;;;;;;;;;;;16.60;76.60;;;;;;4592183;19;19921;-19
2022/04/30 04:26:29;;;;;;;;;;;16.60;76.80;;;;;;4588974;19;19957;-20
2022/04/30 04:28:00;;;;;;;;;;;16.60;76.80;;;;;;4588982;19;19919;-21
2022/04/30 04:29:31;;;;;;;;;;;16.70;76.80;;;;;;4588369;19;19922;-20
2022/04/30 04:31:02;;;;;;;;;;;16.70;76.90;;;;;;4590761;19;19915;-19
2022/04/30 04:32:33;;;;;;;;;;;16.70;77.00;;;;;;4590643;19;19939;-22
2022/04/30 04:34:04;;;;;;;;;;;16.60;77.00;;;;;;4589210;19;19919;-21
2022/04/30 04:35:35;;;;;;;;;;;16.70;77.20;;;;;;4590184;19;19931;-20
2022/04/30 04:37:07;;;;;;;;;;;16.60;77.30;;;;;;4590119;19;19922;-20
2022/04/30 04:38:39;;;;;;;;;;;16.60;77.50;;;;;;4589519;19;19930;-20
2022/04/30 04:40:10;;;;;;;;;;;16.60;77.70;;;;;;4590245;19;19918;-20
2022/04/30 04:41:44;;;;;;;;;;;16.60;77.80;;;;;;4589720;19;20328;-20
2022/04/30 04:43:15;;;;;;;;;;;16.60;77.90;;;;;;4590146;19;19922;-20
2022/04/30 04:44:49;;;;;;;;;;;16.60;78.00;;;;;;4587948;19;19918;-20
2022/04/30 04:46:20;;;;;;;;;;;16.70;78.20;;;;;;4590162;19;19929;-20
2022/04/30 04:47:51;;;;;;;;;;;16.70;78.50;;;;;;4588971;19;20000;-21
2022/04/30 04:49:22;;;;;;;;;;;16.70;78.70;;;;;;4589528;19;19915;-20
2022/04/30 04:50:53;;;;;;;;;;;16.70;78.70;;;;;;4588886;19;20014;-20
2022/04/30 04:52:24;;;;;;;;;;;16.70;79.00;;;;;;4590017;19;19927;-20
2022/04/30 04:53:55;;;;;;;;;;;16.70;79.10;;;;;;4589767;19;20002;-20
2022/04/30 04:55:26;;;;;;;;;;;16.70;79.10;;;;;;4589711;19;19914;-21
2022/04/30 04:56:57;;;;;;;;;;;16.70;79.30;;;;;;4590131;19;19907;-21
2022/04/30 04:58:28;;;;;;;;;;;16.70;79.40;;;;;;4588117;19;19915;-21
2022/04/30 04:59:59;;;;;;;;;;;16.70;79.60;;;;;;4588623;19;19915;-21
2022/04/30 05:01:30;;;;;;;;;;;16.70;79.60;;;;;;4589202;19;19933;-21
2022/04/30 05:03:01;;;;;;;;;;;16.70;79.80;;;;;;4588861;19;19915;-20
2022/04/30 05:04:32;;;;;;;;;;;16.70;79.90;;;;;;4590604;19;19922;-20
2022/04/30 05:06:03;;;;;;;;;;;16.70;80.00;;;;;;4588931;19;19922;-20
2022/04/30 05:07:34;;;;;;;;;;;16.70;80.00;;;;;;4589863;19;19949;-20
2022/04/30 05:09:05;;;;;;;;;;;16.70;80.10;;;;;;4589736;19;19935;-21
2022/04/30 05:10:36;;;;;;;;;;;16.80;80.80;;;;;;4589428;19;19919;-20
2022/04/30 05:12:07;;;;;;;;;;;16.80;80.20;;;;;;4590838;19;19922;-19
2022/04/30 05:13:38;;;;;;;;;;;16.80;80.30;;;;;;4589600;19;19954;-21
2022/04/30 05:15:09;;;;;;;;;;;16.80;80.50;;;;;;4589512;19;19925;-24
2022/04/30 05:16:40;;;;;;;;;;;16.80;80.50;;;;;;4589334;19;19919;-20
2022/04/30 05:18:14;;;;;;;;;;;16.90;80.60;;;;;;4589050;19;19979;-21
2022/04/30 05:19:45;;;;;;;;;;;16.90;80.70;;;;;;4590075;19;19923;-20
2022/04/30 05:21:16;;;;;;;;;;;16.90;80.80;;;;;;4589357;19;19922;-19
2022/04/30 05:22:47;;;;;;;;;;;17.00;80.60;;;;;;4591246;19;19923;-20
2022/04/30 05:24:18;;;;;;;;;;;17.10;80.60;;;;;;4591395;19;19926;-19
2022/04/30 05:25:49;;;;;;;;;;;17.10;80.50;;;;;;4591289;19;19932;-20
2022/04/30 05:27:20;;;;;;;;;;;17.20;80.40;;;;;;4589651;19;19922;-21
2022/04/30 05:28:51;;;;;;;;;;;17.20;80.40;;;;;;4590555;19;19922;-20
2022/04/30 05:30:23;;;;;;;;;;;17.30;80.40;;;;;;4591055;19;19932;-20
2022/04/30 05:31:53;;;;;;;;;;;17.30;80.30;;;;;;4590063;19;19927;-19
2022/04/30 05:33:25;;;;;;;;;;;17.30;80.30;;;;;;4588961;19;20282;-18
2022/04/30 05:34:56;;;;;;;;;;;17.30;80.30;;;;;;4590803;19;19922;-18
2022/04/30 05:36:27;;;;;;;;;;;17.40;80.40;;;;;;4591559;19;19915;-23
2022/04/30 05:37:58;;;;;;;;;;;17.40;80.30;;;;;;4590831;19;19919;-20
2022/04/30 05:39:29;;;;;;;;;;;17.40;80.60;;;;;;4591073;19;19941;-19
2022/04/30 05:41:00;;;;;;;;;;;17.40;80.60;;;;;;4589833;19;19922;-21
2022/04/30 05:42:31;;;;;;;;;;;17.50;80.60;;;;;;4591120;19;20023;-21
2022/04/30 05:44:02;;;;;;;;;;;17.50;80.60;;;;;;4588624;19;19968;-20
2022/04/30 05:45:34;;;;;;;;;;;17.60;80.50;;;;;;4589366;19;19933;-19
2022/04/30 05:47:05;;;;;;;;;;;17.70;80.50;;;;;;4589809;19;19933;-22
2022/04/30 05:48:36;;;;;;;;;;;17.70;80.50;;;;;;4588880;19;19919;-21
2022/04/30 05:50:07;;;;;;;;;;;17.80;80.50;;;;;;4588369;19;19982;-19
2022/04/30 05:51:39;;;;;;;;;;;17.50;80.90;;;;;;4589684;19;19914;-21
2022/04/30 05:53:09;;;;;;;;;;;15.90;84.90;;;;;;4591876;19;19923;-20
2022/04/30 05:54:40;;;;;;;;;;;14.90;87.80;;;;;;4590777;19;19915;-20
2022/04/30 05:56:11;;;;;;;;;;;14.20;89.40;;;;;;4588401;19;19911;-20
2022/04/30 05:57:43;;;;;;;8.43;7.30;;;13.90;90.50;;;;;;4589497;19;20464;-20
2022/04/30 05:59:14;;;;;;;9.25;8.25;;;13.70;91.00;;;;;;4586519;19;20015;-20
2022/04/30 06:00:45;;;;;;;;;;;13.50;91.20;;;;;;4589004;19;20480;-21
2022/04/30 06:02:16;;;;;;;;;;;13.40;91.30;;;;;;4590785;19;19914;-20
2022/04/30 06:03:47;;;;;;;;;;;13.40;91.30;;;;;;4590169;19;20345;-20
2022/04/30 06:05:18;;;;;;;;;;;13.30;91.60;;;;;;4590802;19;19911;-20
2022/04/30 06:06:49;;;;;;;;;;;13.30;91.70;;;;;;4589998;19;20031;-19
2022/04/30 06:08:20;;;;;;;;;;;13.30;91.80;;;;;;4590083;19;19925;-21
2022/04/30 06:09:51;;;;;;;;;;;13.30;91.90;;;;;;4591397;19;19930;-20
2022/04/30 06:11:22;;;;;;;;;;;13.20;91.80;;;;;;4594551;19;19955;-20
2022/04/30 06:12:53;;;;;;;;;;;13.20;91.80;;;;;;4601839;19;19922;-22
2022/04/30 06:14:24;;;;;;;;;;;13.20;91.80;;;;;;4600952;19;19911;-22
2022/04/30 06:15:55;;;;;;;;;;;13.20;92.00;;;;;;4593632;19;19975;-20
2022/04/30 06:17:26;;;;;;;;;;;13.20;92.00;;;;;;4593144;19;19915;-20
2022/04/30 06:18:57;;;;;;;9.05;8.15;;;13.20;92.00;;;;;;4591942;19;19914;-20
2022/04/30 06:20:28;;;;;;;9.40;8.13;;;13.20;92.00;;;;;;4592123;19;20014;-21
2022/04/30 06:21:59;;;;;;;10.55;9.45;;;13.20;92.20;;;;;;4593668;19;20024;-20
2022/04/30 06:23:30;;;;;;;12.93;11.68;;;13.20;92.10;;;;;;4591466;19;20114;-20
2022/04/30 06:25:02;;;;;;;10.23;8.27;;;13.20;92.00;;;;;;4592950;19;20006;-20
2022/04/30 06:26:33;;;;;;;9.10;8.13;;;13.20;92.00;;;;;;4592103;19;20029;-20
2022/04/30 06:28:04;;;;;;;8.75;7.60;;;13.20;92.10;;;;;;4590421;19;20098;-21
2022/04/30 06:29:35;;;;;;;8.68;7.70;;;13.20;92.10;;;;;;4589488;19;20034;-20
2022/04/30 06:31:07;;;;;;;8.75;7.45;;;13.20;92.00;;;;;;4591590;19;20013;-19
2022/04/30 06:32:38;;;;;;;8.60;7.70;;;13.20;92.30;;;;;;4593554;19;20007;-20
2022/04/30 06:34:10;;;;;;;8.93;7.70;;;13.20;92.20;;;;;;4593346;19;20073;-19
2022/04/30 06:35:43;;;;;;;9.63;8.00;;;13.30;92.40;;;;;;4590947;19;20564;-20
2022/04/30 06:37:14;;;;;;;10.43;9.43;;;13.30;92.30;;;;;;4591879;19;20086;-20
2022/04/30 06:38:45;;;;;;;9.98;8.98;;;13.30;92.60;;;;;;4590765;19;20499;-21
2022/04/30 06:40:17;;;;;;;10.25;8.95;;;13.30;92.70;;;;;;4592312;19;20034;-20
2022/04/30 06:41:48;;;;;;;8.85;7.95;;;13.30;92.40;;;;;;4593905;19;20010;-21
2022/04/30 06:43:19;;;;;;;8.32;7.00;;;13.40;92.50;;;;;;4593714;19;20014;-20
2022/04/30 06:44:51;;;;;;;8.88;7.70;;;13.40;92.50;;;;;;4593057;19;20007;-20
2022/04/30 06:46:22;;;;;;;8.40;7.47;;;13.40;92.70;;;;;;4593207;19;20022;-20
2022/04/30 06:47:53;;;;;;;8.82;7.78;;;13.40;92.40;;;;;;4593357;19;20445;-20
2022/04/30 06:49:24;;;;;;;8.70;7.38;;;13.40;92.40;;;;;;4593756;19;20030;-20
2022/04/30 06:50:55;;;;;;;9.43;8.13;;;13.40;92.60;;;;;;4591145;19;20014;-20
2022/04/30 06:52:27;;;;;;;9.25;8.25;;;13.40;92.70;;;;;;4592697;19;20014;-20
2022/04/30 06:57:37;;;;;;;8.30;7.00;;;13.40;92.60;;;;;;4592640;19;20512;-20
2022/04/30 06:59:11;;;;;;;8.40;7.15;;;13.40;92.20;;;;;;4591203;19;20488;-22
2022/04/30 07:02:31;;;;;;;8.40;6.70;;;13.40;92.10;;;;;;4593310;19;20985;-20
2022/04/30 07:04:04;;;;;;;6.10;4.93;;;13.40;91.90;;;;;;4593737;19;20546;-22
2022/04/30 07:05:38;;;;;;;6.27;5.50;;;13.40;91.40;;;;;;4592461;19;20441;-20
2022/04/30 07:07:09;;;;;;;6.50;4.83;;;13.40;91.10;;;;;;4592470;19;20562;-21
2022/04/30 07:08:40;;;;;;;7.05;5.43;;;13.40;90.80;;;;;;4592597;19;20441;-20
2022/04/30 07:10:12;;;;;;;5.55;4.65;;;13.40;90.90;;;;;;4592307;19;20069;-20
2022/04/30 07:11:43;;;;;;;5.45;4.05;;;13.40;90.80;;;;;;4592189;19;20006;-20
2022/04/30 07:13:14;;;;;;;5.22;4.10;;;13.40;90.40;;;;;;4591763;19;20044;-19
2022/04/30 07:14:46;;;;;;;5.57;4.32;;;13.50;90.10;;;;;;4591973;19;20014;-19
2022/04/30 07:16:17;;;;;;;5.90;4.40;;;13.40;90.30;;;;;;4591245;19;20066;-19
2022/04/30 07:17:50;;;;;;;9.32;7.80;;;13.50;90.20;;;;;;4591205;19;21041;-20
2022/04/30 07:19:21;;;;;;;7.17;5.63;;;13.40;89.40;;;;;;4592246;19;20031;-19
2022/04/30 07:20:53;;;;;;;6.30;4.88;;;13.50;90.00;;;;;;4592912;19;20455;-20
2022/04/30 07:22:26;;;;;;;6.70;5.00;;;13.50;89.40;;;;;;4590354;19;20018;-20
2022/04/30 07:23:58;;;;;;;5.23;4.23;;;13.50;88.10;;;;;;4592636;19;20448;-20
2022/04/30 07:25:29;;;;;;;5.45;4.60;;;13.50;88.70;;;;;;4591496;19;20456;-20
2022/04/30 07:27:01;;;;;;;6.20;4.97;;;13.50;89.00;;;;;;4589368;19;20018;-20
2022/04/30 07:28:35;;;;;;;5.10;4.10;;;13.50;89.20;;;;;;4592101;19;20396;-19
2022/04/30 07:30:07;;;;;;;4.57;3.67;;;13.50;88.80;;;;;;4592167;19;20436;-20
2022/04/30 07:31:39;;;;;;;6.80;4.68;;;13.50;87.30;;;;;;4590265;19;20445;-20
2022/04/30 07:33:10;;;;;;;9.37;7.70;;;13.50;87.50;;;;;;4592045;19;20014;-20
2022/04/30 07:34:42;;;;;;;6.38;5.30;;;13.50;89.30;;;;;;4590446;19;20444;-20
2022/04/30 07:36:13;;;;;;;6.40;4.55;;;13.50;88.20;;;;;;4592700;19;20491;-19
2022/04/30 07:37:44;;;;;;;6.07;4.82;;;13.50;88.90;;;;;;4593906;19;20037;-20
2022/04/30 07:39:15;;;;;;;5.13;4.22;;;13.50;88.70;;;;;;4593432;19;20011;-21
2022/04/30 07:40:46;;;;;;;;;;;13.50;89.00;;;;;;4592455;19;20006;-20
2022/04/30 07:42:17;;;;;;;4.70;4.07;;;13.50;88.60;;;;;;4591659;19;20349;-19
2022/04/30 07:43:49;;;;;;;4.82;3.45;;;13.50;87.90;;;;;;4591075;19;20013;-20
2022/04/30 07:45:20;;;;;;;4.93;3.55;;;13.50;88.00;;;;;;4591074;19;20076;-20
2022/04/30 07:46:51;;;;;;;6.10;4.05;;;13.60;88.00;;;;;;4591574;19;20455;-19
2022/04/30 07:48:23;;;;;;;5.18;3.35;;;13.60;87.60;;;;;;4592563;19;20014;-20
2022/04/30 07:49:54;;;;;;;4.57;3.05;;;13.60;85.60;;;;;;4592260;19;20074;-20
2022/04/30 07:51:38;;;;;;;6.43;3.47;;;13.60;85.40;;;;;;4590799;19;20314;-20
2022/04/30 07:53:09;;;;;;;4.77;3.90;;;13.70;85.20;;;;;;4591867;19;20069;-20
2022/04/30 07:54:42;;;;;;;5.03;3.70;;;13.70;86.90;;;;;;4591520;19;20456;-20
2022/04/30 07:56:14;;;;;;;4.57;3.30;;;13.70;87.60;;;;;;4591014;19;20026;-21
2022/04/30 07:57:45;;;;;;;;;;;13.70;86.00;;;;;;4591156;19;20429;-20
2022/04/30 07:59:16;;;;;;;4.93;3.70;;;13.70;85.80;;;;;;4591015;19;19910;-19
2022/04/30 08:00:48;;;;;;;4.40;3.63;;;13.70;86.50;;;;;;4590625;19;20542;-20
2022/04/30 08:02:19;;;;;;;5.03;3.58;;;13.70;85.70;;;;;;4592083;19;19998;-21
2022/04/30 08:03:50;;;;;;;5.20;4.00;;;13.60;85.90;;;;;;4592291;19;20383;-22
2022/04/30 08:05:23;;;;;;;4.80;3.40;;;13.70;87.00;;;;;;4592271;19;20075;-20
2022/04/30 08:06:54;;;;;;;4.77;3.07;;;13.60;86.00;;;;;;4591842;19;20453;-20
2022/04/30 08:08:25;;;;;;;4.65;3.45;;;13.70;86.20;;;;;;4594579;19;20579;-20
2022/04/30 08:09:56;;;;;;;5.07;3.47;;;13.70;85.90;;;;;;4593019;19;20022;-20
2022/04/30 08:11:27;;;;;;;5.90;3.55;;;13.70;86.90;;;;;;4593683;19;20010;-21
2022/04/30 08:12:59;;;;;;;4.65;3.28;;;13.70;86.10;;;;;;4593397;19;20464;-20
2022/04/30 08:14:30;;;;;;;3.60;2.60;;;13.70;84.20;;;;;;4590878;19;20116;-19
2022/04/30 08:16:02;;;;;;;4.68;3.10;;;13.70;85.00;;;;;;4592895;19;20564;-19
2022/04/30 08:17:33;;;;;;;;;;;13.70;84.10;;;;;;4594192;19;20066;-20
2022/04/30 08:19:04;;;;;;;6.23;3.90;;;13.70;85.30;;;;;;4591077;19;19923;-20
2022/04/30 08:20:37;;;;;;;8.68;7.10;;;13.70;84.20;;;;;;4592162;19;20360;-20
2022/04/30 08:22:08;;;;;;;5.07;3.47;;;13.70;85.40;;;;;;4592380;19;20606;-20
2022/04/30 08:23:40;;;;;;;4.82;3.17;;;13.70;85.10;;;;;;4593673;19;20444;-23
2022/04/30 08:25:13;;;;;;;4.13;3.03;;;13.70;84.50;;;;;;4593415;19;20038;-19
2022/04/30 08:26:44;;;;;;;3.63;2.53;;;13.70;84.30;;;;;;4589798;19;20015;-19
2022/04/30 08:28:15;;;;;;;4.18;2.45;;;13.70;83.80;;;;;;4589943;19;20774;-20
2022/04/30 08:29:46;;;;;;;4.03;2.80;;;13.70;84.20;;;;;;4588125;19;20066;-20
2022/04/30 08:31:18;;;;;;;3.60;2.60;;;13.70;84.40;;;;;;4591536;19;20010;-20
2022/04/30 08:32:50;;;;;;;3.55;2.63;;;13.70;84.90;;;;;;4591936;19;20014;-19
2022/04/30 08:34:22;;;;;;;4.17;3.23;;;13.70;84.80;;;;;;4589106;19;20014;-20
2022/04/30 08:35:53;;;;;;;4.72;3.22;;;13.70;85.20;;;;;;4590176;19;20461;-20
2022/04/30 08:37:28;;;;;;;6.33;4.67;;;13.70;85.00;;;;;;4590670;19;20014;-20
2022/04/30 08:38:59;;;;;;;5.03;3.50;;;13.70;87.20;;;;;;4589822;19;20457;-20
2022/04/30 08:40:30;;;;;;;5.63;3.47;;;13.70;86.00;;;;;;4591227;19;20444;-20
2022/04/30 08:42:03;;;;;;;4.53;3.08;;;13.70;86.50;;;;;;4590191;19;20018;-20
2022/04/30 08:43:34;;;;;;;4.63;2.60;;;13.70;83.80;;;;;;4589222;19;20024;-20
2022/04/30 08:45:08;;;;;;;4.68;3.00;;;13.70;85.50;;;;;;4586872;19;20850;-20
2022/04/30 08:46:40;;;;;;;4.90;3.43;;;13.80;84.30;;;;;;4589351;19;20017;-20
2022/04/30 08:48:12;;;;;;;4.83;3.53;;;13.80;84.30;;;;;;4590114;19;21096;-20
2022/04/30 08:49:43;;;;;;;6.17;4.50;;;13.80;84.50;;;;;;4590287;19;20523;-21
2022/04/30 08:51:17;;;;;;;5.20;3.90;;;13.70;85.00;;;;;;4590403;19;20456;-19
2022/04/30 08:52:48;;;;;;;4.83;3.07;;;13.80;85.20;;;;;;4590295;19;20456;-19
2022/04/30 08:54:20;;;;;;;4.05;3.30;;;13.80;85.80;;;;;;4590858;19;20440;-19
2022/04/30 08:55:52;;;;;;;6.05;4.63;;;13.80;84.80;;;;;;4590463;19;20460;-20
2022/04/30 08:57:23;;;;;;;7.30;6.13;;;13.80;85.10;;;;;;4588851;19;20082;-21